Time;durP1;ratioP1;P1;durP2;ratioP2;P2;SDS_P1;SDS_P2;PMS_P1;PMS_P2;Temp;Humidity;BMP_temperature;BMP_pressure;BME280_temperature;BME280_humidity;BME280_pressure;Samples;Min_cycle;Max_cycle;Signal;HPM_P1;HPM_P2
2021/05/07 00:01:15;;;;;;;3.75;2.80;;;11.40;57.10;;;;;;4756514;30;20050;-84
2021/05/07 00:03:41;;;;;;;3.83;2.83;;;11.30;57.10;;;;;;4756266;30;20032;-83
2021/05/07 00:06:07;;;;;;;3.92;2.80;;;11.30;57.70;;;;;;4725988;30;20060;-84
2021/05/07 00:08:39;;;;;;;3.67;2.78;;;11.20;57.10;;;;;;4740383;30;20040;-83
2021/05/07 00:11:10;;;;;;;2.92;2.50;;;11.20;57.20;;;;;;4755607;30;20068;-83
2021/05/07 00:13:37;;;;;;;3.33;2.50;;;11.20;57.20;;;;;;4757407;30;20036;-83
2021/05/07 00:16:04;;;;;;;4.05;2.60;;;11.20;57.20;;;;;;4742146;30;20032;-83
2021/05/07 00:18:30;;;;;;;3.42;2.55;;;11.20;57.20;;;;;;4743513;30;20055;-84
2021/05/07 00:20:56;;;;;;;3.58;2.80;;;11.10;57.20;;;;;;4740469;30;20123;-83
2021/05/07 00:23:22;;;;;;;3.92;2.85;;;11.10;57.20;;;;;;4740660;30;20132;-84
2021/05/07 00:25:51;;;;;;;4.18;2.80;;;11.10;57.30;;;;;;4726616;30;20036;-84
2021/05/07 00:28:18;;;;;;;4.18;2.85;;;11.10;58.00;;;;;;4755496;30;20033;-84
2021/05/07 00:30:44;;;;;;;3.97;2.90;;;11.00;57.40;;;;;;4725799;30;20034;-84
2021/05/07 00:33:10;;;;;;;3.22;2.65;;;11.00;57.40;;;;;;4756033;30;20388;-84
2021/05/07 00:35:36;;;;;;;4.28;2.90;;;11.00;57.40;;;;;;4754645;30;20035;-84
2021/05/07 00:38:03;;;;;;;4.18;3.03;;;11.00;57.40;;;;;;4740514;30;20040;-85
2021/05/07 00:40:29;;;;;;;3.75;2.70;;;10.90;57.40;;;;;;4754999;30;20043;-84
2021/05/07 00:42:56;;;;;;;3.80;2.88;;;10.90;57.50;;;;;;4739706;30;20036;-85
2021/05/07 00:45:25;;;;;;;3.60;2.78;;;10.90;57.50;;;;;;4754366;30;20056;-84
2021/05/07 00:47:54;;;;;;;3.85;3.15;;;10.80;57.50;;;;;;4754691;30;20156;-84
2021/05/07 00:50:20;;;;;;;3.75;2.88;;;10.80;57.50;;;;;;4760686;30;20032;-84
2021/05/07 00:52:46;;;;;;;3.85;3.08;;;10.80;57.50;;;;;;4740955;30;20180;-85
2021/05/07 00:55:13;;;;;;;3.97;3.00;;;10.80;57.60;;;;;;4739907;30;20398;-83
2021/05/07 00:57:39;;;;;;;4.25;2.95;;;10.70;57.60;;;;;;4739868;30;20040;-84
2021/05/07 01:00:08;;;;;;;4.25;3.17;;;10.70;57.60;;;;;;4725671;30;20086;-84
2021/05/07 01:02:35;;;;;;;4.07;3.05;;;10.70;57.60;;;;;;4753926;30;20055;-84
2021/05/07 01:05:06;;;;;;;3.95;2.88;;;10.70;57.60;;;;;;4710850;30;20047;-84
2021/05/07 01:07:33;;;;;;;4.07;3.22;;;10.70;57.70;;;;;;4739579;30;20083;-85
2021/05/07 01:10:03;;;;;;;3.95;3.10;;;10.60;57.70;;;;;;4739853;30;20048;-85
2021/05/07 01:12:31;;;;;;;3.85;2.75;;;10.60;57.60;;;;;;4754512;30;20036;-84
2021/05/07 01:15:10;;;;;;;3.17;2.60;;;10.60;57.70;;;;;;4725192;30;20032;-84
2021/05/07 01:17:44;;;;;;;3.78;3.08;;;10.50;57.70;;;;;;4729392;30;20117;-84
2021/05/07 01:20:28;;;;;;;3.80;3.10;;;10.50;57.70;;;;;;4754745;30;20432;-84
2021/05/07 01:23:04;;;;;;;3.20;2.42;;;10.50;57.80;;;;;;4750472;30;20368;-85
2021/05/07 01:25:38;;;;;;;4.57;2.90;;;10.50;57.80;;;;;;4758693;30;20039;-84
2021/05/07 01:28:10;;;;;;;3.92;2.78;;;10.40;57.80;;;;;;4754698;30;20032;-85
2021/05/07 01:30:42;;;;;;;4.20;3.20;;;10.40;57.80;;;;;;4754427;30;20486;-85
2021/05/07 01:33:13;;;;;;;4.43;3.00;;;10.40;57.80;;;;;;4739602;30;20045;-85
2021/05/07 01:35:41;;;;;;;4.72;3.13;;;10.30;57.80;;;;;;4740146;30;20048;-84
2021/05/07 01:38:10;;;;;;;3.70;3.08;;;10.30;57.80;;;;;;4725184;30;20037;-84
2021/05/07 01:40:38;;;;;;;3.65;2.63;;;10.30;57.90;;;;;;4754168;30;20036;-85
2021/05/07 01:43:05;;;;;;;4.38;3.10;;;10.30;57.90;;;;;;4754083;30;20497;-84
2021/05/07 01:45:33;;;;;;;3.90;2.72;;;10.20;57.80;;;;;;4741880;30;20133;-84
2021/05/07 01:48:00;;;;;;;4.30;3.00;;;10.20;57.90;;;;;;4753779;30;20036;-83
2021/05/07 01:50:31;;;;;;;3.72;2.88;;;10.20;57.90;;;;;;4739047;30;20039;-84
2021/05/07 01:52:58;;;;;;;3.75;2.90;;;10.10;57.90;;;;;;4764260;30;20035;-84
2021/05/07 01:55:27;;;;;;;4.43;3.10;;;10.10;57.90;;;;;;4738809;30;20043;-84
2021/05/07 01:57:53;;;;;;;3.90;2.95;;;10.10;57.90;;;;;;4753675;30;20110;-84
2021/05/07 02:00:24;;;;;;;4.35;3.45;;;10.10;57.90;;;;;;4765741;30;20548;-84
2021/05/07 02:02:50;;;;;;;4.25;3.20;;;10.00;57.90;;;;;;4752888;30;20111;-84
2021/05/07 02:05:25;;;;;;;3.70;2.80;;;10.00;58.00;;;;;;4739816;30;20037;-84
2021/05/07 02:07:51;;;;;;;4.35;3.00;;;9.90;57.90;;;;;;4748908;30;20464;-84
2021/05/07 02:10:20;;;;;;;3.88;2.63;;;10.00;58.00;;;;;;4726545;30;20040;-84
2021/05/07 02:12:46;;;;;;;3.70;3.00;;;9.90;58.00;;;;;;4753161;30;20032;-84
2021/05/07 02:15:14;;;;;;;4.10;3.13;;;9.90;58.00;;;;;;4752543;30;20055;-84
2021/05/07 02:17:42;;;;;;;5.38;3.10;;;9.90;58.00;;;;;;4752887;30;20037;-84
2021/05/07 02:20:12;;;;;;;4.60;3.13;;;9.90;58.00;;;;;;4753315;30;20121;-84
2021/05/07 02:22:39;;;;;;;5.00;3.40;;;9.80;58.00;;;;;;4738211;30;20123;-84
2021/05/07 02:25:05;;;;;;;4.65;3.10;;;9.80;58.00;;;;;;4738453;30;20025;-84
2021/05/07 02:27:31;;;;;;;4.05;3.17;;;9.80;58.10;;;;;;4738327;30;20123;-85
2021/05/07 02:29:58;;;;;;;4.50;3.00;;;9.80;58.10;;;;;;4754476;30;20040;-84
2021/05/07 02:32:24;;;;;;;4.75;3.47;;;9.70;58.10;;;;;;4738863;30;20028;-84
2021/05/07 02:34:50;;;;;;;3.97;3.17;;;9.70;58.10;;;;;;4752969;30;20033;-84
2021/05/07 02:37:16;;;;;;;3.65;2.70;;;9.70;58.10;;;;;;4753279;30;20120;-85
2021/05/07 02:39:42;;;;;;;3.25;2.63;;;9.60;58.10;;;;;;4752962;30;20060;-84
2021/05/07 02:42:08;;;;;;;4.28;3.20;;;9.60;58.10;;;;;;4728207;30;20020;-85
2021/05/07 02:44:34;;;;;;;3.53;2.75;;;9.60;58.20;;;;;;4754489;30;20040;-84
2021/05/07 02:47:03;;;;;;;3.97;3.13;;;9.60;58.50;;;;;;4752598;30;20028;-85
2021/05/07 02:49:34;;;;;;;4.38;3.15;;;9.60;58.20;;;;;;4738761;30;20490;-85
2021/05/07 02:52:02;;;;;;;4.30;3.22;;;9.50;58.20;;;;;;4738713;30;20038;-85
2021/05/07 02:54:29;;;;;;;3.83;3.05;;;9.50;58.20;;;;;;4752866;30;20039;-85
2021/05/07 02:56:55;;;;;;;3.78;3.17;;;9.50;58.30;;;;;;4752530;30;20056;-85
2021/05/07 02:59:22;;;;;;;3.72;2.95;;;9.50;58.30;;;;;;4738346;30;20419;-84
2021/05/07 03:01:49;;;;;;;4.60;3.22;;;9.50;58.30;;;;;;4738588;30;20040;-84
2021/05/07 03:04:15;;;;;;;4.20;3.10;;;9.50;58.40;;;;;;4723606;30;20056;-84
2021/05/07 03:06:41;;;;;;;4.10;3.17;;;9.40;58.30;;;;;;4723144;30;20056;-84
2021/05/07 03:09:07;;;;;;;4.38;3.75;;;9.40;58.40;;;;;;4738153;30;20123;-84
2021/05/07 03:11:33;;;;;;;4.28;3.38;;;9.40;58.40;;;;;;4737586;30;20171;-85
2021/05/07 03:13:59;;;;;;;4.47;3.30;;;9.40;58.40;;;;;;4737442;30;20051;-85
2021/05/07 03:16:25;;;;;;;4.57;3.40;;;9.40;58.50;;;;;;4734918;30;20399;-85
2021/05/07 03:18:51;;;;;;;4.80;3.53;;;9.40;58.40;;;;;;4752584;30;20044;-85
2021/05/07 03:21:17;;;;;;;4.43;3.38;;;9.40;58.50;;;;;;4738074;30;20020;-84
2021/05/07 03:23:43;;;;;;;4.50;3.55;;;9.30;59.10;;;;;;4762621;30;20062;-85
2021/05/07 03:26:10;;;;;;;4.15;3.35;;;9.30;58.50;;;;;;4744979;30;20055;-85
2021/05/07 03:28:39;;;;;;;5.28;3.67;;;9.30;58.50;;;;;;4752169;30;20032;-85
2021/05/07 03:31:06;;;;;;;4.80;3.42;;;9.30;58.50;;;;;;4753458;30;20047;-85
2021/05/07 03:33:33;;;;;;;4.40;3.50;;;9.30;58.60;;;;;;4737661;30;20033;-84
2021/05/07 03:35:59;;;;;;;4.55;3.65;;;9.30;58.60;;;;;;4751624;30;20040;-85
2021/05/07 03:38:25;;;;;;;4.95;3.50;;;9.30;58.60;;;;;;4757011;30;20035;-84
2021/05/07 03:40:51;;;;;;;5.05;3.70;;;9.30;58.70;;;;;;4752209;30;20067;-84
2021/05/07 03:43:17;;;;;;;4.53;3.53;;;9.30;59.30;;;;;;4750006;30;20125;-84
2021/05/07 03:45:43;;;;;;;5.03;3.90;;;9.30;58.70;;;;;;4737209;30;20042;-85
2021/05/07 03:48:17;;;;;;;5.68;3.50;;;9.30;58.80;;;;;;4723265;30;20037;-85
2021/05/07 03:50:43;;;;;;;5.20;3.55;;;9.30;58.80;;;;;;4759465;30;20485;-85
2021/05/07 03:53:13;;;;;;;4.63;3.50;;;9.20;58.70;;;;;;4771042;30;20027;-85
2021/05/07 03:55:39;;;;;;;4.30;3.42;;;9.20;58.80;;;;;;4761127;30;20036;-85
2021/05/07 03:58:06;;;;;;;4.85;3.72;;;9.20;58.80;;;;;;4752757;30;20072;-85
2021/05/07 04:00:32;;;;;;;5.80;4.00;;;9.20;58.80;;;;;;4753177;30;20035;-84
2021/05/07 04:02:58;;;;;;;4.95;3.60;;;9.20;58.80;;;;;;4737882;30;20032;-84
2021/05/07 04:05:23;;;;;;;4.80;3.88;;;9.20;58.90;;;;;;4737782;30;20041;-84
2021/05/07 04:08:02;;;;;;;4.93;3.65;;;9.20;58.90;;;;;;4751425;30;20060;-84
2021/05/07 04:10:30;;;;;;;5.07;3.72;;;9.20;58.90;;;;;;4748976;30;20047;-84
2021/05/07 04:15:22;;;;;;;5.13;3.80;;;9.20;59.00;;;;;;4735190;30;20117;-84
2021/05/07 04:17:48;;;;;;;4.35;3.60;;;9.20;59.00;;;;;;4743110;30;20068;-83
2021/05/07 04:20:14;;;;;;;5.00;3.70;;;9.20;59.00;;;;;;4756970;30;20059;-83
2021/05/07 04:22:40;;;;;;;5.20;4.18;;;9.20;59.10;;;;;;4740679;30;20052;-83
2021/05/07 04:25:08;;;;;;;5.68;3.90;;;9.20;59.20;;;;;;4751028;30;20052;-83
2021/05/07 04:27:34;;;;;;;4.90;3.80;;;9.20;59.30;;;;;;4744278;30;20119;-85
2021/05/07 04:30:00;;;;;;;4.25;3.38;;;9.20;59.20;;;;;;4754337;30;20040;-84
2021/05/07 04:32:26;;;;;;;3.95;3.30;;;9.20;59.20;;;;;;4725943;30;20051;-83
2021/05/07 04:34:52;;;;;;;3.88;3.08;;;9.10;59.20;;;;;;4737086;30;20098;-83
2021/05/07 04:37:18;;;;;;;4.82;3.42;;;9.10;59.20;;;;;;4737124;30;20610;-83
2021/05/07 04:39:44;;;;;;;4.20;3.13;;;9.10;59.20;;;;;;4725054;30;20040;-83
2021/05/07 04:42:10;;;;;;;3.60;2.83;;;9.10;59.20;;;;;;4740387;30;20032;-86
2021/05/07 04:44:35;;;;;;;4.13;2.85;;;9.10;59.30;;;;;;4740198;30;20502;-86
2021/05/07 04:47:01;;;;;;;3.92;2.90;;;9.10;59.30;;;;;;4754585;30;20029;-82
2021/05/07 04:49:27;;;;;;;4.10;3.00;;;9.10;59.30;;;;;;4754883;30;20036;-85
2021/05/07 04:51:54;;;;;;;3.65;2.72;;;9.10;59.30;;;;;;4764339;30;20025;-85
2021/05/07 04:54:20;;;;;;;3.42;2.90;;;9.10;59.30;;;;;;4763470;30;20027;-82
2021/05/07 04:56:46;;;;;;;3.95;2.83;;;9.10;59.30;;;;;;4756060;30;20482;-83
2021/05/07 04:59:12;;;;;;;3.60;2.58;;;9.10;59.40;;;;;;4740538;30;20042;-84
2021/05/07 05:01:38;;;;;;;4.05;2.50;;;9.10;59.40;;;;;;4725739;30;20043;-84
2021/05/07 05:04:04;;;;;;;3.08;2.30;;;9.10;59.40;;;;;;4740209;30;20036;-85
2021/05/07 05:06:32;;;;;;;3.55;2.30;;;9.10;59.40;;;;;;4737806;30;20055;-85
2021/05/07 05:08:58;;;;;;;2.72;2.20;;;9.10;59.50;;;;;;4738352;30;20059;-84
2021/05/07 05:11:24;;;;;;;2.45;2.00;;;9.10;59.50;;;;;;4750628;30;20064;-85
2021/05/07 05:13:50;;;;;;;2.17;1.98;;;9.10;59.50;;;;;;4751530;30;20040;-84
2021/05/07 05:16:15;;;;;;;3.03;2.30;;;9.10;59.50;;;;;;4739134;30;20052;-85
2021/05/07 05:18:41;;;;;;;2.42;2.10;;;9.00;59.50;;;;;;4753975;30;20402;-84
2021/05/07 05:21:10;;;;;;;2.08;1.83;;;9.00;59.50;;;;;;4753475;30;20032;-83
2021/05/07 05:23:38;;;;;;;2.38;1.90;;;9.00;59.60;;;;;;4766915;30;20036;-82
2021/05/07 05:26:04;;;;;;;2.10;1.90;;;9.00;60.20;;;;;;4754928;30;20065;-82
2021/05/07 05:28:30;;;;;;;2.88;2.30;;;9.00;59.60;;;;;;4761564;30;20475;-83
2021/05/07 05:30:56;;;;;;;2.22;1.80;;;9.00;59.60;;;;;;4754756;30;20467;-83
2021/05/07 05:33:22;;;;;;;2.00;1.70;;;9.00;59.70;;;;;;4739400;30;20047;-86
2021/05/07 05:35:48;;;;;;;2.38;1.90;;;9.00;59.80;;;;;;4754514;30;20040;-82
2021/05/07 05:38:14;;;;;;;2.03;1.80;;;9.00;59.80;;;;;;4737088;30;20113;-87
2021/05/07 05:40:41;;;;;;;2.00;1.80;;;9.00;59.80;;;;;;4739433;30;20111;-87
2021/05/07 05:43:07;;;;;;;2.20;1.90;;;9.00;59.80;;;;;;4753764;30;20040;-87
2021/05/07 05:45:34;;;;;;;1.88;1.70;;;9.00;59.80;;;;;;4743180;30;20045;-87
2021/05/07 05:48:04;;;;;;;2.60;2.15;;;9.00;60.40;;;;;;4754477;30;20040;-84
2021/05/07 05:50:37;;;;;;;2.45;1.80;;;9.00;59.90;;;;;;4735638;30;20123;-87
2021/05/07 05:53:06;;;;;;;2.78;2.00;;;9.00;59.90;;;;;;4739091;30;20039;-85
2021/05/07 05:55:41;;;;;;;2.88;1.80;;;9.00;59.80;;;;;;4743145;30;20062;-90
2021/05/07 05:58:07;;;;;;;;;;;9.00;60.00;;;;;;4739682;30;20054;-86
2021/05/07 06:00:44;;;;;;;3.05;1.95;;;9.00;59.80;;;;;;4744915;30;20347;-88
2021/05/07 06:03:10;;;;;;;1.67;1.58;;;9.00;59.80;;;;;;4712577;30;20059;-86
2021/05/07 06:05:36;;;;;;;2.03;1.80;;;9.00;59.80;;;;;;4739479;30;20048;-87
2021/05/07 06:08:02;;;;;;;1.80;1.70;;;8.90;59.90;;;;;;4752237;30;20060;-84
2021/05/07 06:10:28;;;;;;;1.60;1.50;;;8.90;59.90;;;;;;4757649;30;20131;-84
2021/05/07 06:12:57;;;;;;;2.42;1.58;;;9.00;60.00;;;;;;4752646;30;20440;-83
2021/05/07 06:15:23;;;;;;;1.80;1.52;;;8.90;59.90;;;;;;4744692;30;20119;-83
2021/05/07 06:17:49;;;;;;;2.00;1.73;;;9.00;60.00;;;;;;4723948;30;20115;-83
2021/05/07 06:20:17;;;;;;;1.63;1.45;;;8.90;60.00;;;;;;4752446;30;20060;-85
2021/05/07 06:22:48;;;;;;;1.98;1.55;;;9.00;60.00;;;;;;4748083;30;20039;-83
2021/05/07 06:25:20;;;;;;;1.67;1.50;;;8.90;60.00;;;;;;4745086;30;20033;-81
2021/05/07 06:27:46;;;;;;;1.50;1.40;;;9.00;60.10;;;;;;4752984;30;20387;-84
2021/05/07 06:30:15;;;;;;;2.30;1.48;;;8.90;60.00;;;;;;4724219;30;20466;-83
2021/05/07 06:32:43;;;;;;;1.98;1.52;;;8.90;60.10;;;;;;4738729;30;20071;-80
2021/05/07 06:35:10;;;;;;;1.58;1.40;;;8.90;60.00;;;;;;4738180;30;20036;-85
2021/05/07 06:37:36;;;;;;;1.55;1.42;;;8.90;60.10;;;;;;4753790;30;20032;-84
2021/05/07 06:40:06;;;;;;;2.13;1.60;;;8.90;60.10;;;;;;4752780;30;20068;-87
2021/05/07 06:42:38;;;;;;;1.88;1.60;;;8.90;60.10;;;;;;4752560;30;20398;-84
2021/05/07 06:45:11;;;;;;;2.47;1.23;;;8.90;60.10;;;;;;4764952;30;20028;-84
2021/05/07 06:47:38;;;;;;;1.35;1.25;;;8.90;60.20;;;;;;4752903;30;20394;-84
2021/05/07 06:50:05;;;;;;;1.80;1.70;;;8.90;60.10;;;;;;4737336;30;20028;-83
2021/05/07 06:52:32;;;;;;;1.52;1.38;;;8.90;60.20;;;;;;4752685;30;20040;-85
2021/05/07 06:54:59;;;;;;;1.40;1.30;;;8.90;60.20;;;;;;4752534;30;20041;-83
2021/05/07 06:57:24;;;;;;;2.03;1.52;;;8.90;60.20;;;;;;4753390;30;20048;-84
2021/05/07 06:59:50;;;;;;;1.45;1.35;;;8.90;60.20;;;;;;4723200;30;20028;-85
2021/05/07 07:02:20;;;;;;;1.40;1.30;;;8.90;60.20;;;;;;4723384;30;20039;-86
2021/05/07 07:04:46;;;;;;;1.48;1.38;;;8.90;60.20;;;;;;4738584;30;20037;-86
2021/05/07 07:07:16;;;;;;;1.52;1.40;;;8.90;60.20;;;;;;4749027;30;20078;-86
2021/05/07 07:09:47;;;;;;;1.40;1.30;;;8.90;60.20;;;;;;4757570;30;20386;-86
2021/05/07 07:12:13;;;;;;;1.45;1.35;;;8.90;60.30;;;;;;4764725;30;20047;-86
2021/05/07 07:14:42;;;;;;;1.55;1.30;;;8.90;60.20;;;;;;4744085;30;20300;-87
2021/05/07 07:17:10;;;;;;;1.52;1.35;;;8.90;60.20;;;;;;4749585;30;20448;-87
2021/05/07 07:19:36;;;;;;;1.45;1.30;;;8.90;60.30;;;;;;4755947;30;20049;-86
2021/05/07 07:22:08;;;;;;;1.42;1.30;;;8.90;60.20;;;;;;4761003;30;20044;-86
2021/05/07 07:24:37;;;;;;;1.40;1.30;;;8.90;60.30;;;;;;4767944;30;20024;-86
2021/05/07 07:27:04;;;;;;;1.95;1.60;;;8.90;60.30;;;;;;4755301;30;20050;-86
2021/05/07 07:29:30;;;;;;;1.60;1.50;;;8.90;60.30;;;;;;4743832;30;20070;-85
2021/05/07 07:31:56;;;;;;;1.33;1.20;;;8.90;60.30;;;;;;4748915;30;20060;-85
2021/05/07 07:34:22;;;;;;;1.48;1.30;;;8.90;60.30;;;;;;4753553;30;20044;-87
2021/05/07 07:36:49;;;;;;;1.73;1.55;;;8.90;60.30;;;;;;4740266;30;20496;-87
2021/05/07 07:39:18;;;;;;;1.50;1.40;;;9.00;60.40;;;;;;4755485;30;20047;-87
2021/05/07 07:41:44;;;;;;;1.63;1.30;;;9.00;60.40;;;;;;4751834;30;20082;-86
2021/05/07 07:44:11;;;;;;;1.50;1.35;;;9.00;60.40;;;;;;4738401;30;20465;-86
2021/05/07 07:46:37;;;;;;;1.67;1.42;;;9.00;60.40;;;;;;4753278;30;20024;-86
2021/05/07 07:49:03;;;;;;;1.30;1.20;;;9.00;60.40;;;;;;4738578;30;20052;-84
2021/05/07 07:51:31;;;;;;;1.30;1.20;;;9.00;60.40;;;;;;4733878;30;20045;-87
2021/05/07 07:54:03;;;;;;;1.85;1.45;;;9.00;60.40;;;;;;4755306;30;20094;-89
2021/05/07 07:56:30;;;;;;;1.50;1.40;;;9.10;60.40;;;;;;4752538;30;20152;-89
2021/05/07 07:58:56;;;;;;;1.40;1.30;;;9.10;60.40;;;;;;4754575;30;20036;-89
2021/05/07 08:01:24;;;;;;;1.40;1.27;;;9.10;61.00;;;;;;4739783;30;20144;-89
2021/05/07 08:03:50;;;;;;;1.50;1.40;;;9.20;60.40;;;;;;4754326;30;20097;-87
2021/05/07 08:06:18;;;;;;;1.60;1.40;;;9.20;60.30;;;;;;4738952;30;20052;-88
2021/05/07 08:08:44;;;;;;;1.40;1.30;;;9.30;60.30;;;;;;4724902;30;20044;-88
2021/05/07 08:11:10;;;;;;;1.63;1.48;;;9.30;60.30;;;;;;4738747;30;20043;-90
2021/05/07 08:13:35;;;;;;;2.63;1.40;;;9.30;60.20;;;;;;4727738;30;20478;-88
2021/05/07 08:16:03;;;;;;;1.73;1.63;;;9.40;60.20;;;;;;4741543;30;20046;-87
2021/05/07 08:18:34;;;;;;;1.10;1.10;;;9.40;60.20;;;;;;4727680;30;20064;-87
2021/05/07 08:21:00;;;;;;;1.55;1.45;;;9.50;60.20;;;;;;4756087;30;20053;-89
2021/05/07 08:23:29;;;;;;;1.63;1.45;;;9.50;60.10;;;;;;4742978;30;20044;-87
2021/05/07 08:25:55;;;;;;;2.15;1.60;;;9.50;60.10;;;;;;4754090;30;20130;-90
2021/05/07 08:28:21;;;;;;;2.33;1.50;;;9.60;60.10;;;;;;4755462;30;20070;-88
2021/05/07 08:30:48;;;;;;;1.83;1.63;;;9.70;60.10;;;;;;4723700;30;20102;-88
2021/05/07 08:33:16;;;;;;;1.50;1.38;;;9.70;60.10;;;;;;4756067;30;20540;-87
2021/05/07 08:35:45;;;;;;;1.80;1.50;;;9.80;60.00;;;;;;4740973;30;20122;-86
2021/05/07 08:38:17;;;;;;;1.55;1.42;;;9.80;60.00;;;;;;4739159;30;20113;-83
2021/05/07 08:40:42;;;;;;;1.67;1.58;;;9.90;59.90;;;;;;4740117;30;20028;-83
2021/05/07 08:43:13;;;;;;;1.63;1.40;;;10.00;59.90;;;;;;4739863;30;20202;-89
2021/05/07 08:45:46;;;;;;;2.05;1.73;;;10.00;59.90;;;;;;4764715;30;20505;-86
2021/05/07 08:48:12;;;;;;;1.55;1.45;;;10.10;59.80;;;;;;4754033;30;20407;-81
2021/05/07 08:50:38;;;;;;;1.88;1.60;;;10.20;59.80;;;;;;4760475;30;20038;-80
2021/05/07 08:53:04;;;;;;;1.80;1.60;;;10.20;59.70;;;;;;4770735;30;20177;-82
2021/05/07 08:55:30;;;;;;;1.52;1.42;;;10.30;59.70;;;;;;4738295;30;20139;-81
2021/05/07 08:57:58;;;;;;;1.50;1.30;;;10.40;59.70;;;;;;4739319;30;20497;-81
2021/05/07 09:00:24;;;;;;;1.85;1.60;;;10.40;59.50;;;;;;4754727;30;20051;-81
2021/05/07 09:03:10;;;;;;;1.50;1.40;;;10.50;59.50;;;;;;4747544;30;20052;-80
2021/05/07 09:05:39;;;;;;;1.88;1.55;;;10.60;59.50;;;;;;4753206;30;20044;-79
2021/05/07 09:08:08;;;;;;;1.73;1.55;;;10.70;59.40;;;;;;4762633;30;20064;-80
2021/05/07 09:10:43;;;;;;;1.80;1.70;;;10.70;59.30;;;;;;4740494;30;20059;-80
2021/05/07 09:13:11;;;;;;;1.65;1.52;;;10.80;59.30;;;;;;4753093;30;20141;-81
2021/05/07 09:15:48;;;;;;;2.22;1.60;;;10.90;59.20;;;;;;4749752;30;20041;-81
2021/05/07 09:18:15;;;;;;;1.40;1.30;;;11.00;59.20;;;;;;4752044;30;20482;-79
2021/05/07 09:20:47;;;;;;;1.48;1.38;;;11.00;59.10;;;;;;4734504;30;20033;-80
2021/05/07 09:23:14;;;;;;;2.05;1.60;;;11.10;59.10;;;;;;4752840;30;20036;-79
2021/05/07 09:25:46;;;;;;;1.55;1.40;;;11.10;59.00;;;;;;4738129;30;20051;-80
2021/05/07 09:28:17;;;;;;;1.50;1.40;;;11.20;59.00;;;;;;4752838;30;20115;-81
2021/05/07 09:30:45;;;;;;;2.28;1.55;;;11.30;59.00;;;;;;4752487;30;20056;-79
2021/05/07 09:33:14;;;;;;;1.50;1.40;;;11.30;58.90;;;;;;4737298;30;20098;-79
2021/05/07 09:35:41;;;;;;;2.17;1.70;;;11.40;58.80;;;;;;4752489;30;20115;-84
2021/05/07 09:38:18;;;;;;;2.20;1.60;;;11.50;58.90;;;;;;4751396;30;20035;-83
2021/05/07 09:40:47;;;;;;;1.65;1.55;;;11.60;58.90;;;;;;4753628;30;20040;-85
2021/05/07 09:43:17;;;;;;;1.35;1.25;;;11.60;58.70;;;;;;4751445;30;20381;-83
2021/05/07 09:45:47;;;;;;;1.33;1.23;;;11.70;58.70;;;;;;4753161;30;20143;-85
2021/05/07 09:48:27;;;;;;;1.65;1.55;;;11.80;58.60;;;;;;4752723;30;20479;-86
2021/05/07 09:51:02;;;;;;;1.85;1.50;;;11.90;58.50;;;;;;4762568;30;20051;-85
2021/05/07 09:53:46;;;;;;;;;;;12.00;58.40;;;;;;4767989;30;20467;-84
2021/05/07 09:56:17;;;;;;;1.58;1.40;;;12.00;58.20;;;;;;4759800;29;19972;-85
2021/05/07 09:58:43;;;;;;;2.35;1.40;;;12.10;58.00;;;;;;4756385;30;20046;-85
2021/05/07 10:01:10;;;;;;;1.85;1.48;;;12.20;58.10;;;;;;4761119;30;20137;-83
2021/05/07 10:03:36;;;;;;;1.40;1.30;;;12.30;58.10;;;;;;4741755;30;20502;-88
2021/05/07 10:06:03;;;;;;;1.85;1.50;;;12.30;58.10;;;;;;4755880;30;20064;-86
2021/05/07 10:08:30;;;;;;;1.40;1.30;;;12.40;58.00;;;;;;4756798;30;20084;-84
2021/05/07 10:10:58;;;;;;;1.38;1.27;;;12.50;57.90;;;;;;4736544;30;20548;-80
2021/05/07 10:13:29;;;;;;;1.60;1.27;;;12.60;57.80;;;;;;4751564;30;20072;-86
2021/05/07 10:16:01;;;;;;;2.22;1.60;;;12.70;57.70;;;;;;4752830;30;20061;-85
2021/05/07 10:18:27;;;;;;;1.50;1.40;;;12.80;57.70;;;;;;4752394;30;20044;-85
2021/05/07 10:21:07;;;;;;;1.50;1.38;;;12.80;57.50;;;;;;4753730;30;20052;-89
2021/05/07 10:23:34;;;;;;;2.03;1.45;;;12.90;57.60;;;;;;4752170;30;20036;-86
2021/05/07 10:26:01;;;;;;;1.50;1.40;;;13.00;57.50;;;;;;4753960;30;20038;-87
2021/05/07 10:28:42;;;;;;;1.75;1.48;;;13.00;57.40;;;;;;4753787;30;20062;-86
2021/05/07 10:31:10;;;;;;;2.10;1.42;;;13.10;57.40;;;;;;4752557;30;20032;-85
2021/05/07 10:33:36;;;;;;;1.50;1.40;;;13.20;57.40;;;;;;4744349;30;20024;-85
2021/05/07 10:36:03;;;;;;;1.52;1.42;;;13.20;57.30;;;;;;4757413;30;20047;-86
2021/05/07 10:38:29;;;;;;;1.88;1.52;;;13.30;57.30;;;;;;4719444;30;20044;-84
2021/05/07 10:41:10;;;;;;;1.30;1.20;;;13.30;57.30;;;;;;4744968;30;20121;-86
2021/05/07 10:43:44;;;;;;;1.48;1.38;;;13.40;57.30;;;;;;4739843;30;20036;-86
2021/05/07 10:46:24;;;;;;;2.38;1.50;;;13.40;57.20;;;;;;4752431;30;20117;-86
2021/05/07 10:48:54;;;;;;;2.08;1.50;;;13.50;57.30;;;;;;4763419;30;20122;-86
2021/05/07 10:51:22;;;;;;;1.63;1.42;;;13.60;57.20;;;;;;4749254;30;20043;-86
2021/05/07 10:53:49;;;;;;;1.55;1.40;;;13.60;57.10;;;;;;4769977;30;20039;-85
2021/05/07 10:56:22;;;;;;;2.15;1.30;;;13.70;57.00;;;;;;4760362;30;20028;-86
2021/05/07 10:58:51;;;;;;;2.22;1.45;;;13.80;57.00;;;;;;4737234;30;20364;-86
2021/05/07 11:01:18;;;;;;;1.95;1.30;;;13.90;56.90;;;;;;4752201;30;20028;-86
2021/05/07 11:03:44;;;;;;;2.00;1.33;;;14.00;56.80;;;;;;4753124;30;20036;-86
2021/05/07 11:06:11;;;;;;;1.40;1.30;;;14.00;56.80;;;;;;4751956;30;20043;-86
2021/05/07 11:08:36;;;;;;;1.75;1.30;;;14.10;56.70;;;;;;4738228;30;20180;-86
2021/05/07 11:11:02;;;;;;;2.08;1.38;;;14.20;56.60;;;;;;4748014;30;20187;-85
2021/05/07 11:13:28;;;;;;;1.50;1.40;;;14.30;56.50;;;;;;4751839;30;20044;-85
2021/05/07 11:15:58;;;;;;;2.30;1.30;;;14.30;56.40;;;;;;4751998;30;20036;-86
2021/05/07 11:18:32;;;;;;;1.65;1.40;;;14.40;56.40;;;;;;4751839;30;20174;-86
2021/05/07 11:21:10;;;;;;;1.58;1.48;;;14.50;56.30;;;;;;4752151;30;20039;-85
2021/05/07 11:23:36;;;;;;;1.42;1.33;;;14.50;56.20;;;;;;4751898;30;20048;-85
2021/05/07 11:26:06;;;;;;;2.33;1.27;;;14.50;56.10;;;;;;4737275;30;20436;-86
2021/05/07 11:28:43;;;;;;;1.50;1.40;;;14.60;56.20;;;;;;4751856;30;20131;-86
2021/05/07 11:31:10;;;;;;;1.98;1.60;;;14.60;56.10;;;;;;4752061;30;20063;-86
2021/05/07 11:33:36;;;;;;;1.52;1.38;;;14.60;56.00;;;;;;4751763;30;20032;-85
2021/05/07 11:36:13;;;;;;;1.58;1.48;;;14.70;56.00;;;;;;4751782;30;20128;-85
2021/05/07 11:38:41;;;;;;;1.30;1.20;;;14.70;56.00;;;;;;4740401;30;20040;-86
2021/05/07 11:41:20;;;;;;;1.73;1.45;;;14.80;56.00;;;;;;4751866;30;20044;-86
2021/05/07 11:43:46;;;;;;;2.42;1.50;;;14.80;56.00;;;;;;4751826;30;20449;-86
2021/05/07 11:46:12;;;;;;;1.50;1.40;;;14.80;55.80;;;;;;4763238;30;20043;-86
2021/05/07 11:48:43;;;;;;;1.67;1.42;;;14.90;55.80;;;;;;4753187;30;20035;-86
2021/05/07 11:51:10;;;;;;;1.92;1.50;;;14.90;55.80;;;;;;4766109;30;20075;-86
2021/05/07 11:53:36;;;;;;;1.30;1.20;;;15.00;55.80;;;;;;4756588;30;20040;-85
2021/05/07 11:56:06;;;;;;;1.60;1.50;;;15.00;55.80;;;;;;4740163;30;20067;-85
2021/05/07 11:58:37;;;;;;;1.60;1.50;;;15.00;55.80;;;;;;4754863;30;20047;-85
2021/05/07 12:01:06;;;;;;;1.92;1.42;;;15.10;55.70;;;;;;4755315;30;20054;-85
2021/05/07 12:03:43;;;;;;;1.40;1.30;;;15.10;55.60;;;;;;4767123;30;20035;-85
2021/05/07 12:06:42;;;;;;;2.65;1.70;;;15.10;55.60;;;;;;4764403;30;20043;-85
2021/05/07 12:09:09;;;;;;;1.60;1.42;;;15.20;55.70;;;;;;4754425;30;20048;-86
2021/05/07 12:11:35;;;;;;;1.75;1.45;;;15.20;55.50;;;;;;4740130;30;20048;-87
2021/05/07 12:14:14;;;;;;;1.90;1.55;;;15.30;55.50;;;;;;4754877;30;20035;-86
2021/05/07 12:16:40;;;;;;;2.28;1.60;;;15.30;55.50;;;;;;4755030;30;20234;-85
2021/05/07 12:19:06;;;;;;;1.60;1.40;;;15.40;55.40;;;;;;4754898;30;20390;-85
2021/05/07 12:21:45;;;;;;;2.13;1.48;;;15.40;55.30;;;;;;4754613;30;20393;-86
2021/05/07 12:24:13;;;;;;;1.95;1.30;;;15.40;55.30;;;;;;4754917;30;20065;-86
2021/05/07 12:26:50;;;;;;;1.58;1.30;;;15.50;55.20;;;;;;4742500;30;20127;-86
2021/05/07 12:29:16;;;;;;;1.95;1.40;;;15.50;55.10;;;;;;4754751;30;20036;-84
2021/05/07 12:31:42;;;;;;;1.85;1.45;;;15.60;55.00;;;;;;4739327;30;20078;-84
2021/05/07 12:34:22;;;;;;;2.42;1.70;;;15.70;55.00;;;;;;4739192;30;20032;-90
2021/05/07 12:36:59;;;;;;;2.55;1.55;;;15.70;54.10;;;;;;4740007;30;20102;-90
2021/05/07 12:39:27;;;;;;;2.28;1.58;;;15.70;53.40;;;;;;4739821;30;20059;-85
2021/05/07 12:41:55;;;;;;;2.15;1.45;;;15.70;53.10;;;;;;4753918;30;20028;-87
2021/05/07 12:44:26;;;;;;;1.98;1.60;;;15.80;52.70;;;;;;4756497;30;20037;-86
2021/05/07 12:46:52;;;;;;;2.05;1.50;;;15.80;52.60;;;;;;4737848;30;20036;-87
2021/05/07 12:49:18;;;;;;;2.10;1.60;;;15.80;52.60;;;;;;4735856;30;21200;-85
2021/05/07 12:51:44;;;;;;;2.85;1.55;;;15.90;52.60;;;;;;4753786;30;20127;-83
2021/05/07 12:54:10;;;;;;;2.90;1.80;;;15.90;52.60;;;;;;4739286;30;20127;-84
2021/05/07 12:56:40;;;;;;;1.80;1.40;;;16.00;52.70;;;;;;4738602;30;20040;-87
2021/05/07 12:59:06;;;;;;;1.50;1.40;;;16.00;52.70;;;;;;4739097;30;20483;-87
2021/05/07 13:01:32;;;;;;;1.98;1.48;;;16.00;52.70;;;;;;4739817;30;20075;-85